createdAt,value
2023-05-19T00:02:06.174Z,100.00
2023-05-19T00:04:35.399Z,100.00
2023-05-19T00:07:03.485Z,100.00
2023-05-19T00:09:31.453Z,100.00
2023-05-19T00:11:59.059Z,100.00
2023-05-19T00:14:26.418Z,100.00
2023-05-19T00:16:56.075Z,100.00
2023-05-19T00:19:24.579Z,100.00
2023-05-19T00:21:52.038Z,100.00
2023-05-19T00:24:19.172Z,100.00
2023-05-19T00:26:46.580Z,100.00
2023-05-19T00:29:18.391Z,100.00
2023-05-19T00:31:46.653Z,100.00
2023-05-19T00:34:14.133Z,100.00
2023-05-19T00:36:41.528Z,100.00
2023-05-19T00:39:08.668Z,100.00
2023-05-19T00:41:36.106Z,99.46
2023-05-19T00:44:03.590Z,98.08
2023-05-19T00:46:30.874Z,97.66
2023-05-19T00:48:58.365Z,97.60
2023-05-19T00:51:26.817Z,97.47
2023-05-19T00:53:54.035Z,97.94
2023-05-19T00:56:21.861Z,97.58
2023-05-19T00:58:51.063Z,96.44
2023-05-19T01:01:19.323Z,96.29
2023-05-19T01:03:48.184Z,96.31
2023-05-19T01:06:15.583Z,95.71
2023-05-19T01:08:42.767Z,97.32
2023-05-19T01:11:10.753Z,99.35
2023-05-19T01:13:40.336Z,100.00
2023-05-19T01:16:17.404Z,100.00
2023-05-19T01:18:47.873Z,100.00
2023-05-19T01:21:17.720Z,100.00
2023-05-19T01:24:12.000Z,100.00
2023-05-19T01:26:56.895Z,100.00
2023-05-19T01:29:39.875Z,100.00
2023-05-19T01:32:08.121Z,100.00
2023-05-19T01:34:42.073Z,100.00
2023-05-19T01:37:09.728Z,100.00
2023-05-19T01:39:37.455Z,100.00
2023-05-19T01:42:04.989Z,100.00
2023-05-19T01:44:33.059Z,100.00
2023-05-19T01:47:01.231Z,100.00
2023-05-19T01:49:28.535Z,100.00
2023-05-19T01:51:56.288Z,100.00
2023-05-19T01:54:23.782Z,100.00
2023-05-19T01:57:17.432Z,100.00
2023-05-19T02:00:15.881Z,100.00
2023-05-19T02:02:49.575Z,100.00
2023-05-19T02:05:41.853Z,100.00
2023-05-19T02:08:12.548Z,100.00
2023-05-19T02:10:43.490Z,100.00
2023-05-19T02:13:14.113Z,100.00
2023-05-19T02:15:42.431Z,100.00
2023-05-19T02:18:11.560Z,100.00
2023-05-19T02:20:40.033Z,100.00
2023-05-19T02:23:07.528Z,100.00
2023-05-19T02:25:35.048Z,100.00
2023-05-19T02:28:02.315Z,100.00
2023-05-19T02:30:32.069Z,100.00
2023-05-19T02:33:00.587Z,100.00
2023-05-19T02:35:28.068Z,100.00
2023-05-19T02:37:55.548Z,100.00
2023-05-19T02:40:23.316Z,100.00
2023-05-19T02:42:50.578Z,100.00
2023-05-19T02:45:18.074Z,100.00
2023-05-19T02:47:45.385Z,100.00
2023-05-19T02:50:12.577Z,100.00
2023-05-19T02:52:40.400Z,100.00
2023-05-19T02:55:08.203Z,100.00
2023-05-19T02:57:35.601Z,100.00
2023-05-19T03:00:03.587Z,100.00
2023-05-19T03:02:33.386Z,100.00
2023-05-19T03:05:02.858Z,100.00
2023-05-19T03:07:30.982Z,100.00
2023-05-19T03:09:58.178Z,100.00
2023-05-19T03:12:25.413Z,100.00
2023-05-19T03:14:52.937Z,100.00
2023-05-19T03:17:20.216Z,100.00
2023-05-19T03:19:47.535Z,100.00
2023-05-19T03:22:15.413Z,100.00
2023-05-19T03:24:42.587Z,100.00
2023-05-19T03:27:11.990Z,100.00
2023-05-19T03:29:39.543Z,100.00
2023-05-19T03:32:06.926Z,100.00
2023-05-19T03:34:35.468Z,100.00
2023-05-19T03:37:03.190Z,100.00
2023-05-19T03:39:31.046Z,100.00
2023-05-19T03:41:58.268Z,100.00
2023-05-19T03:44:26.230Z,100.00
2023-05-19T03:46:53.564Z,100.00
2023-05-19T03:49:21.206Z,100.00
2023-05-19T03:51:59.635Z,100.00
2023-05-19T03:54:27.503Z,100.00
2023-05-19T03:56:54.904Z,100.00
2023-05-19T03:59:23.633Z,100.00
2023-05-19T04:01:51.584Z,100.00
2023-05-19T04:04:19.189Z,100.00
2023-05-19T04:06:46.737Z,100.00
2023-05-19T04:09:15.826Z,100.00
2023-05-19T04:11:43.380Z,100.00
2023-05-19T04:14:10.707Z,100.00
2023-05-19T04:16:37.944Z,100.00
2023-05-19T04:19:05.788Z,100.00
2023-05-19T04:21:33.232Z,100.00
2023-05-19T04:24:00.441Z,100.00
2023-05-19T04:26:30.997Z,97.55
2023-05-19T04:28:58.425Z,91.55
2023-05-19T04:31:26.083Z,87.89
2023-05-19T04:33:53.692Z,86.09
2023-05-19T04:36:21.850Z,85.11
2023-05-19T04:38:49.434Z,82.82
2023-05-19T04:41:17.575Z,83.63
2023-05-19T04:43:45.013Z,80.60
2023-05-19T04:46:13.961Z,79.28
2023-05-19T04:48:42.711Z,78.10
2023-05-19T04:51:10.137Z,77.87
2023-05-19T04:53:37.363Z,78.41
2023-05-19T04:56:07.874Z,78.17
2023-05-19T04:58:35.593Z,77.56
2023-05-19T05:01:03.855Z,77.08
2023-05-19T05:03:33.214Z,76.93
2023-05-19T05:06:01.092Z,77.88
2023-05-19T05:08:30.184Z,78.54
2023-05-19T05:10:58.133Z,79.69
2023-05-19T05:13:26.711Z,80.25
2023-05-19T05:15:54.470Z,79.77
2023-05-19T05:18:22.399Z,78.28
2023-05-19T05:20:50.333Z,77.84
2023-05-19T05:23:17.875Z,77.29
2023-05-19T05:25:47.114Z,77.12
2023-05-19T05:28:14.627Z,78.03
2023-05-19T05:30:42.059Z,79.93
2023-05-19T05:33:09.899Z,81.83
2023-05-19T05:35:37.546Z,83.19
2023-05-19T05:38:04.906Z,86.02
2023-05-19T05:40:32.578Z,87.49
2023-05-19T05:42:59.888Z,88.91
2023-05-19T05:45:27.669Z,90.10
2023-05-19T05:47:55.706Z,89.64
2023-05-19T05:50:23.831Z,92.38
2023-05-19T05:52:53.193Z,92.50
2023-05-19T05:55:21.096Z,90.45
2023-05-19T05:57:50.603Z,90.24
2023-05-19T06:00:18.637Z,90.32
2023-05-19T06:02:50.625Z,90.62
2023-05-19T06:05:18.099Z,88.61
2023-05-19T06:07:46.787Z,89.64
2023-05-19T06:10:16.864Z,89.98
2023-05-19T06:12:44.112Z,91.40
2023-05-19T06:15:11.631Z,90.46
2023-05-19T06:17:43.562Z,88.84
2023-05-19T06:20:11.697Z,89.29
2023-05-19T06:22:39.235Z,89.29
2023-05-19T06:25:08.945Z,90.18
2023-05-19T06:27:36.295Z,90.54
2023-05-19T06:30:04.249Z,89.75
2023-05-19T06:32:32.257Z,89.26
2023-05-19T06:34:59.893Z,90.07
2023-05-19T06:37:27.395Z,88.49
2023-05-19T06:39:55.789Z,92.09
2023-05-19T06:42:24.025Z,92.90
2023-05-19T06:44:53.068Z,89.82
2023-05-19T06:47:20.350Z,89.69
2023-05-19T06:49:50.868Z,89.58
2023-05-19T06:52:19.158Z,89.05
2023-05-19T06:54:50.875Z,88.51
2023-05-19T06:57:18.056Z,85.73
2023-05-19T06:59:46.757Z,84.95
2023-05-19T07:02:14.426Z,85.90
2023-05-19T07:04:42.556Z,85.11
2023-05-19T07:07:10.457Z,87.85
2023-05-19T07:09:38.167Z,89.10
2023-05-19T07:12:05.983Z,85.21
2023-05-19T07:14:33.657Z,85.71
2023-05-19T07:17:01.053Z,84.54
2023-05-19T07:19:28.300Z,84.11
2023-05-19T07:21:57.029Z,85.43
2023-05-19T07:24:25.091Z,88.57
2023-05-19T07:26:52.299Z,83.51
2023-05-19T07:29:19.789Z,85.59
2023-05-19T07:31:46.987Z,87.12
2023-05-19T07:34:14.332Z,89.33
2023-05-19T07:36:42.142Z,88.21
2023-05-19T07:39:09.503Z,89.72
2023-05-19T07:41:36.781Z,85.91
2023-05-19T07:44:07.763Z,86.16
2023-05-19T07:46:35.552Z,84.86
2023-05-19T07:49:03.383Z,83.88
2023-05-19T07:51:31.779Z,86.52
2023-05-19T07:53:59.014Z,85.68
2023-05-19T07:56:26.193Z,82.64
2023-05-19T07:58:53.689Z,83.41
2023-05-19T08:01:20.945Z,85.60
2023-05-19T08:03:48.440Z,83.94
2023-05-19T08:06:15.699Z,80.39
2023-05-19T08:08:42.808Z,78.02
2023-05-19T08:11:10.189Z,79.12
2023-05-19T08:13:37.292Z,79.61
2023-05-19T08:16:05.113Z,80.32
2023-05-19T08:18:32.602Z,80.63
2023-05-19T08:20:59.762Z,81.97
2023-05-19T08:23:26.953Z,81.31
2023-05-19T08:25:54.409Z,80.94
2023-05-19T08:28:21.566Z,80.34
2023-05-19T08:30:50.750Z,79.67
2023-05-19T08:33:20.742Z,80.29
2023-05-19T08:35:47.937Z,78.85
2023-05-19T08:38:15.089Z,80.19
2023-05-19T08:40:42.821Z,79.62
2023-05-19T08:43:11.240Z,77.37
2023-05-19T08:45:41.689Z,77.43
2023-05-19T08:48:09.234Z,79.50
2023-05-19T08:50:39.884Z,78.42
2023-05-19T08:53:33.767Z,77.89
2023-05-19T08:56:10.400Z,79.31
2023-05-19T08:58:40.205Z,78.43
2023-05-19T09:01:08.006Z,76.49
2023-05-19T09:03:39.313Z,78.69
2023-05-19T09:06:12.575Z,78.58
2023-05-19T09:08:41.078Z,79.85
2023-05-19T09:11:09.610Z,82.60
2023-05-19T09:13:36.785Z,81.27
2023-05-19T09:16:04.439Z,79.30
2023-05-19T09:18:31.850Z,79.42
2023-05-19T09:21:03.223Z,79.75
2023-05-19T09:23:34.034Z,78.20
2023-05-19T09:26:07.689Z,80.28
2023-05-19T09:28:36.841Z,77.84
2023-05-19T09:31:08.230Z,76.57
2023-05-19T09:33:37.084Z,76.16
2023-05-19T09:36:11.575Z,80.16
2023-05-19T09:38:39.644Z,77.54
2023-05-19T09:41:08.313Z,76.69
2023-05-19T09:43:35.637Z,76.67
2023-05-19T09:46:07.970Z,77.47
2023-05-19T09:48:36.447Z,77.93
2023-05-19T09:51:08.214Z,78.12
2023-05-19T09:53:35.521Z,77.83
2023-05-19T09:56:04.121Z,79.86
2023-05-19T09:58:35.419Z,76.21
2023-05-19T10:01:04.303Z,76.73
2023-05-19T10:03:35.243Z,74.51
2023-05-19T10:06:04.502Z,73.90
2023-05-19T10:08:33.533Z,74.27
2023-05-19T10:11:00.989Z,69.36
2023-05-19T10:13:29.473Z,71.12
2023-05-19T10:15:59.446Z,71.10
2023-05-19T10:18:30.139Z,71.75
2023-05-19T10:20:58.185Z,71.50
2023-05-19T10:23:25.781Z,68.77
2023-05-19T10:25:56.822Z,68.83
2023-05-19T10:28:28.391Z,70.49
2023-05-19T10:30:59.039Z,73.58
2023-05-19T10:33:42.487Z,76.81
2023-05-19T10:36:15.914Z,73.25
2023-05-19T10:38:55.928Z,65.76
2023-05-19T10:41:37.181Z,68.76
2023-05-19T10:44:04.999Z,72.10
2023-05-19T10:46:32.266Z,72.76
2023-05-19T10:48:59.543Z,69.63
2023-05-19T10:51:33.727Z,71.59
2023-05-19T10:54:08.078Z,66.00
2023-05-19T10:56:42.334Z,69.64
2023-05-19T10:59:37.170Z,67.23
2023-05-19T11:02:05.727Z,66.99
2023-05-19T11:05:07.738Z,66.93
2023-05-19T11:07:35.561Z,67.73
2023-05-19T11:10:07.590Z,64.38
2023-05-19T11:12:45.850Z,67.37
2023-05-19T11:15:16.536Z,66.93
2023-05-19T11:17:48.837Z,68.57
2023-05-19T11:20:26.706Z,69.65
2023-05-19T11:23:07.197Z,67.75
2023-05-19T11:25:51.462Z,65.55
2023-05-19T11:28:20.945Z,65.25
2023-05-19T11:30:50.807Z,62.90
2023-05-19T11:33:19.962Z,66.30
2023-05-19T11:35:49.527Z,68.06
2023-05-19T11:38:20.383Z,68.40
2023-05-19T11:40:49.668Z,66.18
2023-05-19T11:43:16.858Z,64.10
2023-05-19T11:45:44.420Z,64.35
2023-05-19T11:48:12.973Z,64.76
2023-05-19T11:50:44.150Z,65.89
2023-05-19T11:53:16.725Z,67.00
2023-05-19T11:55:48.116Z,66.02
2023-05-19T11:58:16.640Z,66.67
2023-05-19T12:00:46.252Z,66.75
2023-05-19T12:03:13.988Z,72.23
2023-05-19T12:05:45.330Z,69.89
2023-05-19T12:08:12.959Z,65.71
2023-05-19T12:10:40.978Z,67.21
2023-05-19T12:13:11.731Z,67.62
2023-05-19T12:15:39.258Z,62.19
2023-05-19T12:18:07.376Z,61.82
2023-05-19T12:20:37.793Z,64.56
2023-05-19T12:23:05.753Z,63.59
2023-05-19T12:25:33.529Z,63.74
2023-05-19T12:28:04.639Z,65.06
2023-05-19T12:30:33.203Z,64.79
2023-05-19T12:33:01.806Z,62.05
2023-05-19T12:35:30.706Z,63.65
2023-05-19T12:38:03.369Z,66.26
2023-05-19T12:40:31.045Z,66.25
2023-05-19T12:42:59.338Z,62.30
2023-05-19T12:45:28.572Z,60.28
2023-05-19T12:47:56.681Z,63.28
2023-05-19T12:50:30.917Z,60.58
2023-05-19T12:52:59.971Z,60.69
2023-05-19T12:55:27.298Z,60.64
2023-05-19T12:57:57.072Z,60.51
2023-05-19T13:00:27.756Z,60.85
2023-05-19T13:02:55.379Z,58.37
2023-05-19T13:05:22.995Z,59.18
2023-05-19T13:07:57.933Z,61.26
2023-05-19T13:10:29.004Z,63.63
2023-05-19T13:13:00.453Z,61.58
2023-05-19T13:15:31.850Z,58.94
2023-05-19T13:18:00.558Z,57.51
2023-05-19T13:20:28.647Z,62.00
2023-05-19T13:22:56.992Z,58.70
2023-05-19T13:25:24.600Z,63.30
2023-05-19T13:27:51.897Z,59.55
2023-05-19T13:30:19.466Z,61.86
2023-05-19T13:32:47.140Z,59.05
2023-05-19T13:35:14.993Z,60.80
2023-05-19T13:37:42.749Z,60.39
2023-05-19T13:40:10.981Z,58.11
2023-05-19T13:42:38.384Z,60.89
2023-05-19T13:45:06.154Z,58.63
2023-05-19T13:47:33.729Z,59.53
2023-05-19T13:50:04.607Z,60.80
2023-05-19T13:52:31.989Z,58.54
2023-05-19T13:54:59.521Z,58.46
2023-05-19T13:57:26.814Z,57.13
2023-05-19T14:00:02.815Z,58.34
2023-05-19T14:02:39.822Z,57.67
2023-05-19T14:05:08.094Z,58.24
2023-05-19T14:07:35.939Z,61.59
2023-05-19T14:10:05.485Z,61.84
2023-05-19T14:12:41.647Z,60.55
2023-05-19T14:15:20.135Z,63.26
2023-05-19T14:17:49.034Z,61.55
2023-05-19T14:20:16.795Z,59.95
2023-05-19T14:22:44.003Z,60.26
2023-05-19T14:25:11.521Z,58.61
2023-05-19T14:27:40.040Z,58.92
2023-05-19T14:30:08.405Z,57.15
2023-05-19T14:32:36.116Z,58.84
2023-05-19T14:35:03.678Z,59.61
2023-05-19T14:37:31.953Z,59.90
2023-05-19T14:39:59.569Z,60.15
2023-05-19T14:42:26.822Z,57.81
2023-05-19T14:44:54.066Z,57.65
2023-05-19T14:47:21.558Z,58.35
2023-05-19T14:49:48.915Z,56.57
2023-05-19T14:52:16.252Z,55.91
2023-05-19T14:54:43.734Z,55.74
2023-05-19T14:57:10.962Z,54.44
2023-05-19T14:59:38.735Z,56.65
2023-05-19T15:02:06.387Z,57.72
2023-05-19T15:04:33.647Z,55.65
2023-05-19T15:09:31.803Z,57.62
2023-05-19T15:12:01.159Z,56.32
2023-05-19T15:14:30.495Z,55.20
2023-05-19T15:16:58.971Z,56.79
2023-05-19T15:19:26.487Z,56.67
2023-05-19T15:21:53.929Z,55.83
2023-05-19T15:24:21.520Z,57.46
2023-05-19T15:26:48.741Z,58.49
2023-05-19T15:29:15.941Z,58.15
2023-05-19T15:31:43.524Z,57.78
2023-05-19T15:34:10.785Z,57.70
2023-05-19T15:36:38.022Z,56.08
2023-05-19T15:39:06.492Z,57.92
2023-05-19T15:41:33.682Z,57.05
2023-05-19T15:44:02.309Z,55.55
2023-05-19T15:46:30.419Z,55.95
2023-05-19T15:48:57.647Z,59.33
2023-05-19T15:51:24.991Z,58.56
2023-05-19T15:53:52.527Z,55.62
2023-05-19T15:56:19.690Z,54.37
2023-05-19T15:58:46.937Z,54.28
2023-05-19T16:01:15.256Z,55.86
2023-05-19T16:03:43.603Z,63.05
2023-05-19T16:06:11.031Z,62.95
2023-05-19T16:08:38.295Z,63.96
2023-05-19T16:11:06.009Z,65.59
2023-05-19T16:13:33.657Z,64.21
2023-05-19T16:16:01.118Z,61.34
2023-05-19T16:18:31.740Z,63.29
2023-05-19T16:20:58.918Z,63.12
2023-05-19T16:23:27.418Z,64.89
2023-05-19T16:25:54.920Z,60.94
2023-05-19T16:28:24.477Z,63.55
2023-05-19T16:30:52.078Z,62.64
2023-05-19T16:33:19.640Z,62.36
2023-05-19T16:35:46.826Z,63.23
2023-05-19T16:38:13.950Z,63.47
2023-05-19T16:40:41.403Z,63.22
2023-05-19T16:43:08.544Z,63.07
2023-05-19T16:45:35.758Z,65.21
2023-05-19T16:48:03.618Z,62.19
2023-05-19T16:50:31.042Z,62.94
2023-05-19T16:52:58.232Z,62.97
2023-05-19T16:55:26.758Z,63.14
2023-05-19T16:57:53.995Z,64.32
2023-05-19T17:00:21.213Z,65.11
2023-05-19T17:02:48.695Z,65.04
2023-05-19T17:05:15.952Z,66.38
2023-05-19T17:07:43.093Z,67.77
2023-05-19T17:10:10.941Z,67.89
2023-05-19T17:12:38.110Z,68.40
2023-05-19T17:15:05.911Z,71.03
2023-05-19T17:17:33.357Z,74.40
2023-05-19T17:20:00.656Z,73.68
2023-05-19T17:22:28.807Z,74.08
2023-05-19T17:24:57.787Z,77.49
2023-05-19T17:27:25.053Z,74.77
2023-05-19T17:29:52.179Z,76.12
2023-05-19T17:32:25.488Z,79.24
2023-05-19T17:34:52.946Z,78.75
2023-05-19T17:37:23.475Z,83.33
2023-05-19T17:39:50.934Z,86.00
2023-05-19T17:42:18.097Z,87.60
2023-05-19T17:44:45.532Z,87.90
2023-05-19T17:47:12.646Z,89.26
2023-05-19T17:49:40.308Z,90.03
2023-05-19T17:52:08.348Z,90.57
2023-05-19T17:54:35.861Z,92.84
2023-05-19T17:57:03.628Z,92.62
2023-05-19T17:59:31.385Z,93.29
2023-05-19T18:01:58.829Z,93.91
2023-05-19T18:04:26.598Z,94.28
2023-05-19T18:06:54.576Z,95.48
2023-05-19T18:09:23.368Z,95.84
2023-05-19T18:11:50.832Z,96.90
2023-05-19T18:14:18.027Z,97.43
2023-05-19T18:16:45.323Z,98.07
2023-05-19T18:19:12.890Z,98.98
2023-05-19T18:21:40.088Z,98.88
2023-05-19T18:24:07.302Z,99.62
2023-05-19T18:26:37.636Z,99.40
2023-05-19T18:29:05.051Z,100.00
2023-05-19T18:31:32.265Z,99.76
2023-05-19T18:33:59.771Z,100.00
2023-05-19T18:36:27.027Z,100.00
2023-05-19T18:38:55.130Z,100.00
2023-05-19T18:41:22.827Z,100.00
2023-05-19T18:43:50.105Z,100.00
2023-05-19T18:46:18.000Z,100.00
2023-05-19T18:48:45.616Z,100.00
2023-05-19T18:51:15.768Z,100.00
2023-05-19T18:53:42.885Z,100.00
2023-05-19T18:56:15.199Z,100.00
2023-05-19T18:58:42.409Z,99.75
2023-05-19T19:01:09.966Z,99.40
2023-05-19T19:03:37.212Z,100.00
2023-05-19T19:06:04.383Z,99.82
2023-05-19T19:08:31.862Z,100.00
2023-05-19T19:11:01.044Z,100.00
2023-05-19T19:13:28.399Z,100.00
2023-05-19T19:15:55.830Z,100.00
2023-05-19T19:18:23.001Z,100.00
2023-05-19T19:20:50.159Z,100.00
2023-05-19T19:23:17.747Z,100.00
2023-05-19T19:25:44.856Z,100.00
2023-05-19T19:28:11.989Z,100.00
2023-05-19T19:30:39.576Z,100.00
2023-05-19T19:33:07.065Z,100.00
2023-05-19T19:35:34.966Z,100.00
2023-05-19T19:38:02.467Z,100.00
2023-05-19T19:40:29.770Z,100.00
2023-05-19T19:42:57.021Z,100.00
2023-05-19T19:45:25.924Z,100.00
2023-05-19T19:47:53.547Z,100.00
2023-05-19T19:50:20.793Z,100.00
2023-05-19T19:52:48.254Z,100.00
2023-05-19T19:55:15.828Z,100.00
2023-05-19T19:57:45.601Z,100.00
2023-05-19T20:00:13.555Z,100.00
2023-05-19T20:02:55.856Z,100.00
2023-05-19T20:05:29.112Z,100.00
2023-05-19T20:07:56.520Z,100.00
2023-05-19T20:10:23.642Z,100.00
2023-05-19T20:12:51.184Z,100.00
2023-05-19T20:15:18.772Z,100.00
2023-05-19T20:17:46.286Z,100.00
2023-05-19T20:20:13.928Z,100.00
2023-05-19T20:22:41.406Z,100.00
2023-05-19T20:25:08.950Z,100.00
2023-05-19T20:27:36.145Z,100.00
2023-05-19T20:30:04.009Z,100.00
2023-05-19T20:32:31.658Z,100.00
2023-05-19T20:34:58.924Z,100.00
2023-05-19T20:37:26.517Z,100.00
2023-05-19T20:39:53.648Z,100.00
2023-05-19T20:42:20.769Z,100.00
2023-05-19T20:44:48.201Z,100.00
2023-05-19T20:47:15.375Z,100.00
2023-05-19T20:49:42.574Z,100.00
2023-05-19T20:52:10.119Z,100.00
2023-05-19T20:54:37.413Z,100.00
2023-05-19T20:57:08.956Z,100.00
2023-05-19T20:59:36.437Z,100.00
2023-05-19T21:02:04.339Z,100.00
2023-05-19T21:04:33.035Z,100.00
2023-05-19T21:07:01.073Z,100.00
2023-05-19T21:09:28.268Z,100.00
2023-05-19T21:11:55.441Z,100.00
2023-05-19T21:14:22.959Z,100.00
2023-05-19T21:16:51.338Z,100.00
2023-05-19T21:19:20.580Z,100.00
2023-05-19T21:21:48.204Z,100.00
2023-05-19T21:24:15.588Z,100.00
2023-05-19T21:26:43.193Z,100.00
2023-05-19T21:29:10.817Z,100.00
2023-05-19T21:31:38.240Z,100.00
2023-05-19T21:34:07.513Z,100.00
2023-05-19T21:36:35.250Z,100.00
2023-05-19T21:39:03.663Z,100.00
2023-05-19T21:41:33.502Z,100.00
2023-05-19T21:44:00.931Z,100.00
2023-05-19T21:46:29.124Z,100.00
2023-05-19T21:48:56.483Z,100.00
2023-05-19T21:51:23.922Z,100.00
2023-05-19T21:53:51.054Z,100.00
2023-05-19T21:56:18.159Z,100.00
2023-05-19T21:58:45.606Z,100.00
2023-05-19T22:01:13.220Z,100.00
2023-05-19T22:03:40.797Z,100.00
2023-05-19T22:06:08.307Z,100.00
2023-05-19T22:08:35.473Z,100.00
2023-05-19T22:11:02.952Z,100.00
2023-05-19T22:13:30.308Z,100.00
2023-05-19T22:15:58.108Z,100.00
2023-05-19T22:18:25.521Z,100.00
2023-05-19T22:20:52.644Z,100.00
2023-05-19T22:23:19.744Z,100.00
2023-05-19T22:25:47.160Z,100.00
2023-05-19T22:28:14.392Z,100.00
2023-05-19T22:30:42.296Z,100.00
2023-05-19T22:33:11.709Z,100.00
2023-05-19T22:35:38.947Z,100.00
2023-05-19T22:38:07.477Z,100.00
2023-05-19T22:40:37.003Z,100.00
2023-05-19T22:43:04.240Z,100.00
2023-05-19T22:45:31.647Z,100.00
2023-05-19T22:47:59.484Z,100.00
2023-05-19T22:50:26.783Z,100.00
2023-05-19T22:52:53.976Z,100.00
2023-05-19T22:55:21.463Z,100.00
2023-05-19T22:57:48.678Z,100.00
2023-05-19T23:00:18.641Z,100.00
2023-05-19T23:02:46.846Z,100.00
2023-05-19T23:05:14.053Z,100.00
2023-05-19T23:07:41.258Z,100.00
2023-05-19T23:10:09.062Z,100.00
2023-05-19T23:12:36.236Z,100.00
2023-05-19T23:15:03.884Z,100.00
2023-05-19T23:17:33.304Z,100.00
2023-05-19T23:20:00.549Z,100.00
2023-05-19T23:22:27.805Z,100.00
2023-05-19T23:24:55.267Z,100.00
2023-05-19T23:27:22.340Z,100.00
2023-05-19T23:29:51.524Z,100.00
2023-05-19T23:32:18.902Z,100.00
2023-05-19T23:34:47.101Z,100.00
2023-05-19T23:37:14.428Z,100.00
2023-05-19T23:39:41.971Z,100.00
2023-05-19T23:42:09.181Z,100.00
2023-05-19T23:44:36.399Z,100.00
2023-05-19T23:47:03.997Z,100.00
2023-05-19T23:49:31.179Z,100.00
2023-05-19T23:51:58.330Z,100.00
2023-05-19T23:54:26.637Z,100.00
2023-05-19T23:56:55.773Z,100.00
2023-05-19T23:59:23.128Z,100.00
